sensor_id;sensor_type;location;lat;lon;timestamp;pressure;altitude;pressure_sealevel;temperature;humidity
62374;BME280;48409;49.030;1.820;2023-02-17T00:00:01;101749.72;;;11.88;66.28
62374;BME280;48409;49.030;1.820;2023-02-17T00:02:26;101760.28;;;11.88;66.26
62374;BME280;48409;49.030;1.820;2023-02-17T00:04:51;101751.44;;;11.89;66.40
62374;BME280;48409;49.030;1.820;2023-02-17T00:07:17;101752.31;;;11.90;66.41
62374;BME280;48409;49.030;1.820;2023-02-17T00:09:42;101748.75;;;11.91;66.29
62374;BME280;48409;49.030;1.820;2023-02-17T00:12:07;101747.88;;;11.90;66.34
62374;BME280;48409;49.030;1.820;2023-02-17T00:14:33;101744.38;;;11.90;66.50
62374;BME280;48409;49.030;1.820;2023-02-17T00:16:58;101752.31;;;11.90;66.34
62374;BME280;48409;49.030;1.820;2023-02-17T00:19:24;101756.66;;;11.91;66.46
62374;BME280;48409;49.030;1.820;2023-02-17T00:21:53;101752.31;;;11.90;66.30
62374;BME280;48409;49.030;1.820;2023-02-17T00:24:19;101746.16;;;11.89;66.44
62374;BME280;48409;49.030;1.820;2023-02-17T00:26:47;101753.16;;;11.90;66.45
62374;BME280;48409;49.030;1.820;2023-02-17T00:29:13;101752.31;;;11.90;66.55
62374;BME280;48409;49.030;1.820;2023-02-17T00:31:38;101758.44;;;11.90;66.53
62374;BME280;48409;49.030;1.820;2023-02-17T00:34:04;101747.88;;;11.90;66.45
62374;BME280;48409;49.030;1.820;2023-02-17T00:36:29;101754.88;;;11.91;66.53
62374;BME280;48409;49.030;1.820;2023-02-17T00:38:55;101754.88;;;11.91;66.58
62374;BME280;48409;49.030;1.820;2023-02-17T00:41:21;101746.94;;;11.91;66.57
62374;BME280;48409;49.030;1.820;2023-02-17T00:43:47;101756.66;;;11.91;66.59
62374;BME280;48409;49.030;1.820;2023-02-17T00:46:12;101749.59;;;11.91;66.59
62374;BME280;48409;49.030;1.820;2023-02-17T00:48:38;101758.34;;;11.93;66.61
62374;BME280;48409;49.030;1.820;2023-02-17T00:51:03;101746.91;;;11.93;66.57
62374;BME280;48409;49.030;1.820;2023-02-17T00:53:28;101748.69;;;11.92;66.45
62374;BME280;48409;49.030;1.820;2023-02-17T00:55:54;101743.41;;;11.92;66.57
62374;BME280;48409;49.030;1.820;2023-02-17T00:58:19;101743.38;;;11.94;66.52
62374;BME280;48409;49.030;1.820;2023-02-17T01:00:45;101735.50;;;11.92;66.46
62374;BME280;48409;49.030;1.820;2023-02-17T01:03:10;101739.84;;;11.93;66.55
62374;BME280;48409;49.030;1.820;2023-02-17T01:05:42;101743.41;;;11.92;66.61
62374;BME280;48409;49.030;1.820;2023-02-17T01:08:08;101735.50;;;11.92;66.63
62374;BME280;48409;49.030;1.820;2023-02-17T01:10:35;101740.78;;;11.92;66.58
62374;BME280;48409;49.030;1.820;2023-02-17T01:13:00;101738.09;;;11.94;66.62
62374;BME280;48409;49.030;1.820;2023-02-17T01:15:25;101735.50;;;11.92;66.52
62374;BME280;48409;49.030;1.820;2023-02-17T01:17:51;101731.94;;;11.93;66.57
62374;BME280;48409;49.030;1.820;2023-02-17T01:20:16;101731.94;;;11.93;66.62
62374;BME280;48409;49.030;1.820;2023-02-17T01:22:41;101741.63;;;11.93;66.45
62374;BME280;48409;49.030;1.820;2023-02-17T01:25:07;101733.69;;;11.93;66.53
62374;BME280;48409;49.030;1.820;2023-02-17T01:27:32;101741.63;;;11.93;66.57
62374;BME280;48409;49.030;1.820;2023-02-17T01:29:57;101742.50;;;11.93;66.61
62374;BME280;48409;49.030;1.820;2023-02-17T01:32:23;101741.63;;;11.93;66.67
62374;BME280;48409;49.030;1.820;2023-02-17T01:34:48;101731.94;;;11.93;66.68
62374;BME280;48409;49.030;1.820;2023-02-17T01:37:14;101738.94;;;11.94;66.55
62374;BME280;48409;49.030;1.820;2023-02-17T01:39:39;101739.84;;;11.93;66.70
62374;BME280;48409;49.030;1.820;2023-02-17T01:42:04;101737.22;;;11.93;66.57
62374;BME280;48409;49.030;1.820;2023-02-17T01:44:30;101738.97;;;11.93;66.65
62374;BME280;48409;49.030;1.820;2023-02-17T01:46:55;101739.84;;;11.93;66.68
62374;BME280;48409;49.030;1.820;2023-02-17T01:49:23;101735.50;;;11.92;66.73
62374;BME280;48409;49.030;1.820;2023-02-17T01:51:51;101742.50;;;11.93;66.58
62374;BME280;48409;49.030;1.820;2023-02-17T01:54:21;101738.97;;;11.93;66.57
62374;BME280;48409;49.030;1.820;2023-02-17T01:56:48;101737.22;;;11.93;66.61
62374;BME280;48409;49.030;1.820;2023-02-17T01:59:16;101731.94;;;11.93;66.84
62374;BME280;48409;49.030;1.820;2023-02-17T02:01:42;101731.94;;;11.93;66.75
62374;BME280;48409;49.030;1.820;2023-02-17T02:04:08;101724.00;;;11.93;66.69
62374;BME280;48409;49.030;1.820;2023-02-17T02:06:34;101727.53;;;11.94;66.73
62374;BME280;48409;49.030;1.820;2023-02-17T02:11:28;101722.25;;;11.94;66.73
62374;BME280;48409;49.030;1.820;2023-02-17T02:13:54;101723.09;;;11.94;66.69
62374;BME280;48409;49.030;1.820;2023-02-17T02:18:59;101724.00;;;11.93;66.66
62374;BME280;48409;49.030;1.820;2023-02-17T02:22:03;101721.38;;;11.93;66.71
62374;BME280;48409;49.030;1.820;2023-02-17T02:34:45;101703.81;;;11.92;66.82
62374;BME280;48409;49.030;1.820;2023-02-17T02:37:16;101700.25;;;11.93;66.86
62374;BME280;48409;49.030;1.820;2023-02-17T02:39:43;101710.81;;;11.93;66.83
62374;BME280;48409;49.030;1.820;2023-02-17T02:42:15;101704.66;;;11.93;66.80
62374;BME280;48409;49.030;1.820;2023-02-17T02:44:43;101703.81;;;11.92;66.76
62374;BME280;48409;49.030;1.820;2023-02-17T02:47:52;101702.88;;;11.93;66.88
62374;BME280;48409;49.030;1.820;2023-02-17T02:49:57;101700.25;;;11.93;66.90
62374;BME280;48409;49.030;1.820;2023-02-17T02:52:35;101702.88;;;11.93;66.77
62374;BME280;48409;49.030;1.820;2023-02-17T02:55:11;101700.25;;;11.93;66.80
62374;BME280;48409;49.030;1.820;2023-02-17T03:10:10;101698.47;;;11.94;66.97
62374;BME280;48409;49.030;1.820;2023-02-17T03:12:35;101706.41;;;11.94;67.02
62374;BME280;48409;49.030;1.820;2023-02-17T03:15:04;101700.25;;;11.93;66.89
62374;BME280;48409;49.030;1.820;2023-02-17T03:17:31;101708.97;;;11.95;66.89
62374;BME280;48409;49.030;1.820;2023-02-17T03:19:56;101708.13;;;11.95;67.04
62374;BME280;48409;49.030;1.820;2023-02-17T03:22:23;101708.97;;;11.95;67.06
62374;BME280;48409;49.030;1.820;2023-02-17T03:24:49;101707.25;;;11.94;66.98
62374;BME280;48409;49.030;1.820;2023-02-17T03:27:14;101707.25;;;11.94;67.05
62374;BME280;48409;49.030;1.820;2023-02-17T03:29:40;101703.69;;;11.95;67.09
62374;BME280;48409;49.030;1.820;2023-02-17T03:32:05;101694.88;;;11.96;67.01
62374;BME280;48409;49.030;1.820;2023-02-17T03:34:31;101694.88;;;11.96;67.07
62374;BME280;48409;49.030;1.820;2023-02-17T03:36:56;101689.59;;;11.96;67.04
62374;BME280;48409;49.030;1.820;2023-02-17T03:39:21;101686.94;;;11.96;67.05
62374;BME280;48409;49.030;1.820;2023-02-17T03:41:48;101691.31;;;11.97;66.94
62374;BME280;48409;49.030;1.820;2023-02-17T03:44:16;101691.31;;;11.97;67.01
62374;BME280;48409;49.030;1.820;2023-02-17T03:46:41;101686.03;;;11.97;67.06
62374;BME280;48409;49.030;1.820;2023-02-17T03:49:06;101688.66;;;11.97;67.08
62374;BME280;48409;49.030;1.820;2023-02-17T03:51:31;101692.19;;;11.98;67.16
62374;BME280;48409;49.030;1.820;2023-02-17T03:53:57;101692.19;;;11.98;67.17
62374;BME280;48409;49.030;1.820;2023-02-17T03:56:22;101700.00;;;11.99;67.16
62374;BME280;48409;49.030;1.820;2023-02-17T03:58:47;101705.28;;;11.99;67.11
62374;BME280;48409;49.030;1.820;2023-02-17T04:01:13;101700.88;;;12.00;67.16
62374;BME280;48409;49.030;1.820;2023-02-17T04:03:38;101709.75;;;11.99;67.08
62374;BME280;48409;49.030;1.820;2023-02-17T04:06:04;101701.75;;;12.00;67.15
62374;BME280;48409;49.030;1.820;2023-02-17T04:08:30;101707.03;;;12.00;67.13
62374;BME280;48409;49.030;1.820;2023-02-17T04:10:56;101711.41;;;12.01;67.15
62374;BME280;48409;49.030;1.820;2023-02-17T04:13:25;101712.19;;;12.04;67.24
62374;BME280;48409;49.030;1.820;2023-02-17T04:15:50;101716.59;;;12.05;67.21
62374;BME280;48409;49.030;1.820;2023-02-17T04:18:15;101715.75;;;12.02;67.17
62374;BME280;48409;49.030;1.820;2023-02-17T04:20:41;101720.13;;;12.04;67.30
62374;BME280;48409;49.030;1.820;2023-02-17T04:23:07;101724.50;;;12.05;67.20
62374;BME280;48409;49.030;1.820;2023-02-17T04:25:36;101729.69;;;12.08;67.16
62374;BME280;48409;49.030;1.820;2023-02-17T04:28:02;101717.41;;;12.07;67.20
62374;BME280;48409;49.030;1.820;2023-02-17T04:30:28;101719.13;;;12.08;67.26
62374;BME280;48409;49.030;1.820;2023-02-17T04:32:53;101726.13;;;12.09;67.25
62374;BME280;48409;49.030;1.820;2023-02-17T04:35:18;101720.84;;;12.09;67.24
62374;BME280;48409;49.030;1.820;2023-02-17T04:37:44;101722.59;;;12.10;67.24
62374;BME280;48409;49.030;1.820;2023-02-17T04:40:09;101721.72;;;12.09;67.22
62374;BME280;48409;49.030;1.820;2023-02-17T04:42:35;101727.88;;;12.10;67.37
62374;BME280;48409;49.030;1.820;2023-02-17T04:45:00;101726.03;;;12.12;67.33
62374;BME280;48409;49.030;1.820;2023-02-17T04:47:26;101726.03;;;12.12;67.44
62374;BME280;48409;49.030;1.820;2023-02-17T04:49:52;101725.09;;;12.13;67.38
62374;BME280;48409;49.030;1.820;2023-02-17T04:52:17;101726.03;;;12.12;67.28
62374;BME280;48409;49.030;1.820;2023-02-17T04:54:42;101721.56;;;12.14;67.29
62374;BME280;48409;49.030;1.820;2023-02-17T04:57:08;101724.19;;;12.14;67.39
62374;BME280;48409;49.030;1.820;2023-02-17T04:59:33;101725.91;;;12.15;67.31
62374;BME280;48409;49.030;1.820;2023-02-17T05:01:58;101726.84;;;12.14;67.35
62374;BME280;48409;49.030;1.820;2023-02-17T05:04:23;101730.28;;;12.16;67.38
62374;BME280;48409;49.030;1.820;2023-02-17T05:06:49;101738.19;;;12.16;67.33
62374;BME280;48409;49.030;1.820;2023-02-17T05:09:14;101734.63;;;12.17;67.42
62374;BME280;48409;49.030;1.820;2023-02-17T05:11:39;101733.78;;;12.17;67.35
62374;BME280;48409;49.030;1.820;2023-02-17T05:14:05;101736.38;;;12.18;67.67
62374;BME280;48409;49.030;1.820;2023-02-17T05:16:30;101739.03;;;12.18;67.42
62374;BME280;48409;49.030;1.820;2023-02-17T05:18:55;101749.59;;;12.18;67.48
62374;BME280;48409;49.030;1.820;2023-02-17T05:21:20;101748.66;;;12.19;67.40
62374;BME280;48409;49.030;1.820;2023-02-17T05:23:46;101761.81;;;12.21;67.33
62374;BME280;48409;49.030;1.820;2023-02-17T05:26:11;101760.94;;;12.20;67.52
62374;BME280;48409;49.030;1.820;2023-02-17T05:28:36;101757.38;;;12.21;67.52
62374;BME280;48409;49.030;1.820;2023-02-17T05:31:02;101752.09;;;12.21;67.55
62374;BME280;48409;49.030;1.820;2023-02-17T05:33:27;101752.09;;;12.21;67.61
62374;BME280;48409;49.030;1.820;2023-02-17T05:35:53;101753.84;;;12.22;67.44
62374;BME280;48409;49.030;1.820;2023-02-17T05:38:18;101760.84;;;12.23;67.42
62374;BME280;48409;49.030;1.820;2023-02-17T05:40:43;101762.59;;;12.23;67.60
62374;BME280;48409;49.030;1.820;2023-02-17T05:43:09;101755.56;;;12.23;67.48
62374;BME280;48409;49.030;1.820;2023-02-17T05:45:34;101762.56;;;12.24;67.52
62374;BME280;48409;49.030;1.820;2023-02-17T05:47:59;101756.41;;;12.24;67.53
62374;BME280;48409;49.030;1.820;2023-02-17T05:50:25;101763.44;;;12.25;67.60
62374;BME280;48409;49.030;1.820;2023-02-17T05:52:50;101766.91;;;12.25;67.59
62374;BME280;48409;49.030;1.820;2023-02-17T05:55:15;101766.91;;;12.25;67.54
62374;BME280;48409;49.030;1.820;2023-02-17T05:57:40;101778.34;;;12.26;67.56
62374;BME280;48409;49.030;1.820;2023-02-17T06:00:06;101785.34;;;12.27;67.54
62374;BME280;48409;49.030;1.820;2023-02-17T06:02:31;101784.47;;;12.26;67.65
62374;BME280;48409;49.030;1.820;2023-02-17T06:04:57;101787.13;;;12.26;67.65
62374;BME280;48409;49.030;1.820;2023-02-17T06:07:22;101788.88;;;12.27;67.65
62374;BME280;48409;49.030;1.820;2023-02-17T06:09:48;101795.00;;;12.28;67.60
62374;BME280;48409;49.030;1.820;2023-02-17T06:12:13;101801.16;;;12.29;67.61
62374;BME280;48409;49.030;1.820;2023-02-17T06:14:38;101793.22;;;12.29;67.81
62374;BME280;48409;49.030;1.820;2023-02-17T06:17:03;101795.88;;;12.29;67.68
62374;BME280;48409;49.030;1.820;2023-02-17T06:19:29;101792.31;;;12.30;67.63
62374;BME280;48409;49.030;1.820;2023-02-17T06:21:54;101799.31;;;12.31;67.58
62374;BME280;48409;49.030;1.820;2023-02-17T06:24:21;101792.25;;;12.31;67.67
62374;BME280;48409;49.030;1.820;2023-02-17T06:26:46;101798.41;;;12.32;67.71
62374;BME280;48409;49.030;1.820;2023-02-17T06:29:11;101797.50;;;12.33;67.74
62374;BME280;48409;49.030;1.820;2023-02-17T06:31:36;101810.69;;;12.33;67.75
62374;BME280;48409;49.030;1.820;2023-02-17T06:34:02;101808.91;;;12.33;67.72
62374;BME280;48409;49.030;1.820;2023-02-17T06:36:27;101815.06;;;12.34;67.85
62374;BME280;48409;49.030;1.820;2023-02-17T06:38:52;101822.06;;;12.35;67.74
62374;BME280;48409;49.030;1.820;2023-02-17T06:41:18;101823.81;;;12.36;67.75
62374;BME280;48409;49.030;1.820;2023-02-17T06:43:43;101820.28;;;12.35;67.74
62374;BME280;48409;49.030;1.820;2023-02-17T06:46:08;101829.94;;;12.36;67.61
62374;BME280;48409;49.030;1.820;2023-02-17T06:48:33;101829.09;;;12.36;67.82
62374;BME280;48409;49.030;1.820;2023-02-17T06:50:59;101833.47;;;12.37;67.81
62374;BME280;48409;49.030;1.820;2023-02-17T06:53:24;101834.38;;;12.36;67.81
62374;BME280;48409;49.030;1.820;2023-02-17T06:55:49;101841.38;;;12.37;67.78
62374;BME280;48409;49.030;1.820;2023-02-17T06:58:15;101845.75;;;12.38;67.81
62374;BME280;48409;49.030;1.820;2023-02-17T07:00:40;101843.97;;;12.38;67.76
62374;BME280;48409;49.030;1.820;2023-02-17T07:03:05;101844.81;;;12.39;67.75
62374;BME280;48409;49.030;1.820;2023-02-17T07:05:33;101843.97;;;12.38;67.79
62374;BME280;48409;49.030;1.820;2023-02-17T07:07:58;101845.69;;;12.39;67.73
62374;BME280;48409;49.030;1.820;2023-02-17T07:10:23;101846.53;;;12.40;67.75
62374;BME280;48409;49.030;1.820;2023-02-17T07:12:49;101843.09;;;12.38;67.78
62374;BME280;48409;49.030;1.820;2023-02-17T07:15:15;101843.00;;;12.41;67.75
62374;BME280;48409;49.030;1.820;2023-02-17T07:17:40;101848.28;;;12.41;67.85
62374;BME280;48409;49.030;1.820;2023-02-17T07:20:05;101847.41;;;12.40;67.82
62374;BME280;48409;49.030;1.820;2023-02-17T07:22:31;101858.84;;;12.41;67.89
62374;BME280;48409;49.030;1.820;2023-02-17T07:24:56;101849.19;;;12.40;67.91
62374;BME280;48409;49.030;1.820;2023-02-17T07:27:21;101857.06;;;12.42;67.91
62374;BME280;48409;49.030;1.820;2023-02-17T07:29:47;101850.00;;;12.42;67.80
62374;BME280;48409;49.030;1.820;2023-02-17T07:32:12;101846.44;;;12.43;67.92
62374;BME280;48409;49.030;1.820;2023-02-17T07:34:37;101853.44;;;12.44;67.93
62374;BME280;48409;49.030;1.820;2023-02-17T07:37:03;101858.72;;;12.44;67.93
62374;BME280;48409;49.030;1.820;2023-02-17T07:39:28;101864.00;;;12.44;67.90
62374;BME280;48409;49.030;1.820;2023-02-17T07:41:53;101862.19;;;12.46;67.87
62374;BME280;48409;49.030;1.820;2023-02-17T07:44:18;101860.47;;;12.45;67.84
62374;BME280;48409;49.030;1.820;2023-02-17T07:46:44;101871.03;;;12.45;67.83
62374;BME280;48409;49.030;1.820;2023-02-17T07:49:09;101870.13;;;12.46;67.96
62374;BME280;48409;49.030;1.820;2023-02-17T07:51:34;101868.34;;;12.47;67.92
62374;BME280;48409;49.030;1.820;2023-02-17T07:54:00;101865.63;;;12.48;68.03
62374;BME280;48409;49.030;1.820;2023-02-17T07:56:25;101868.28;;;12.48;67.91
62374;BME280;48409;49.030;1.820;2023-02-17T07:58:53;101868.22;;;12.50;67.98
62374;BME280;48409;49.030;1.820;2023-02-17T08:01:19;101876.09;;;12.51;67.92
62374;BME280;48409;49.030;1.820;2023-02-17T08:03:45;101869.88;;;12.52;67.93
62374;BME280;48409;49.030;1.820;2023-02-17T08:06:18;101864.56;;;12.54;68.02
62374;BME280;48409;49.030;1.820;2023-02-17T08:08:43;101870.72;;;12.55;68.16
62374;BME280;48409;49.030;1.820;2023-02-17T08:11:28;101872.44;;;12.56;68.15
62374;BME280;48409;49.030;1.820;2023-02-17T08:14:12;101877.66;;;12.57;68.14
62374;BME280;48409;49.030;1.820;2023-02-17T08:16:37;101881.16;;;12.58;68.09
62374;BME280;48409;49.030;1.820;2023-02-17T08:19:02;101879.34;;;12.60;68.11
62374;BME280;48409;49.030;1.820;2023-02-17T08:21:28;101882.78;;;12.62;68.05
62374;BME280;48409;49.030;1.820;2023-02-17T08:23:53;101888.88;;;12.64;68.14
62374;BME280;48409;49.030;1.820;2023-02-17T08:26:19;101892.41;;;12.64;68.24
62374;BME280;48409;49.030;1.820;2023-02-17T08:28:44;101891.44;;;12.67;68.19
62374;BME280;48409;49.030;1.820;2023-02-17T08:31:29;101889.63;;;12.68;68.20
62374;BME280;48409;49.030;1.820;2023-02-17T08:33:55;101896.59;;;12.70;68.14
62374;BME280;48409;49.030;1.820;2023-02-17T08:36:21;101898.34;;;12.71;68.28
62374;BME280;48409;49.030;1.820;2023-02-17T08:38:50;101896.47;;;12.73;68.20
62374;BME280;48409;49.030;1.820;2023-02-17T08:41:21;101898.19;;;12.74;68.27
62374;BME280;48409;49.030;1.820;2023-02-17T08:43:46;101896.38;;;12.76;68.20
62374;BME280;48409;49.030;1.820;2023-02-17T08:46:12;101900.75;;;12.77;68.21
62374;BME280;48409;49.030;1.820;2023-02-17T08:48:38;101906.81;;;12.79;68.30
62374;BME280;48409;49.030;1.820;2023-02-17T08:51:04;101905.06;;;12.80;68.20
62374;BME280;48409;49.030;1.820;2023-02-17T08:53:29;101905.00;;;12.82;68.29
62374;BME280;48409;49.030;1.820;2023-02-17T08:55:54;101899.72;;;12.82;68.17
62374;BME280;48409;49.030;1.820;2023-02-17T08:58:20;101905.78;;;12.84;68.28
62374;BME280;48409;49.030;1.820;2023-02-17T09:00:45;101904.03;;;12.84;68.15
62374;BME280;48409;49.030;1.820;2023-02-17T09:03:11;101898.69;;;12.86;68.23
62374;BME280;48409;49.030;1.820;2023-02-17T09:05:36;101895.16;;;12.85;68.33
62374;BME280;48409;49.030;1.820;2023-02-17T09:08:01;101914.50;;;12.87;68.22
62374;BME280;48409;49.030;1.820;2023-02-17T09:10:27;101895.94;;;12.89;68.37
62374;BME280;48409;49.030;1.820;2023-02-17T09:12:52;101907.34;;;12.89;68.26
62374;BME280;48409;49.030;1.820;2023-02-17T09:15:17;101900.25;;;12.91;68.41
62374;BME280;48409;49.030;1.820;2023-02-17T09:17:43;101903.69;;;12.93;68.42
62374;BME280;48409;49.030;1.820;2023-02-17T09:20:09;101908.03;;;12.95;68.51
62374;BME280;48409;49.030;1.820;2023-02-17T09:22:34;101911.47;;;12.98;68.37
62374;BME280;48409;49.030;1.820;2023-02-17T09:25:00;101898.25;;;12.98;68.31
62374;BME280;48409;49.030;1.820;2023-02-17T09:27:25;101900.75;;;13.01;68.27
62374;BME280;48409;49.030;1.820;2023-02-17T09:29:50;101897.22;;;13.02;68.40
62374;BME280;48409;49.030;1.820;2023-02-17T09:32:16;101903.28;;;13.04;68.44
62374;BME280;48409;49.030;1.820;2023-02-17T09:34:41;101914.66;;;13.06;68.41
62374;BME280;48409;49.030;1.820;2023-02-17T09:37:13;101919.06;;;13.08;68.48
62374;BME280;48409;49.030;1.820;2023-02-17T09:39:39;101926.84;;;13.11;68.36
62374;BME280;48409;49.030;1.820;2023-02-17T09:42:09;101916.28;;;13.11;68.47
62374;BME280;48409;49.030;1.820;2023-02-17T09:44:41;101928.47;;;13.15;68.44
62374;BME280;48409;49.030;1.820;2023-02-17T09:47:17;101924.94;;;13.16;68.35
62374;BME280;48409;49.030;1.820;2023-02-17T09:49:46;101930.13;;;13.17;68.41
62374;BME280;48409;49.030;1.820;2023-02-17T09:54:48;101930.06;;;13.19;68.39
62374;BME280;48409;49.030;1.820;2023-02-17T09:57:18;101932.63;;;13.22;68.46
62374;BME280;48409;49.030;1.820;2023-02-17T09:59:47;101924.69;;;13.22;68.45
62374;BME280;48409;49.030;1.820;2023-02-17T10:02:20;101927.28;;;13.24;68.46
62374;BME280;48409;49.030;1.820;2023-02-17T10:04:48;101939.56;;;13.25;68.54
62374;BME280;48409;49.030;1.820;2023-02-17T10:07:39;101936.94;;;13.25;68.46
62374;BME280;48409;49.030;1.820;2023-02-17T10:10:03;101939.53;;;13.26;68.54
62374;BME280;48409;49.030;1.820;2023-02-17T10:12:31;101935.03;;;13.28;68.58
62374;BME280;48409;49.030;1.820;2023-02-17T10:15:12;101939.47;;;13.28;68.45
62374;BME280;48409;49.030;1.820;2023-02-17T10:20:13;101946.38;;;13.32;68.69
62374;BME280;48409;49.030;1.820;2023-02-17T10:22:41;101936.63;;;13.32;68.55
62374;BME280;48409;49.030;1.820;2023-02-17T10:25:14;101941.81;;;13.36;68.67
62374;BME280;48409;49.030;1.820;2023-02-17T10:30:51;101947.84;;;13.39;68.58
62374;BME280;48409;49.030;1.820;2023-02-17T10:33:28;101941.56;;;13.42;68.57
62374;BME280;48409;49.030;1.820;2023-02-17T10:36:09;101949.47;;;13.43;68.64
62374;BME280;48409;49.030;1.820;2023-02-17T10:38:44;101954.66;;;13.47;68.67
62374;BME280;48409;49.030;1.820;2023-02-17T10:41:14;101952.81;;;13.49;68.71
62374;BME280;48409;49.030;1.820;2023-02-17T10:43:39;101952.72;;;13.52;68.76
62374;BME280;48409;49.030;1.820;2023-02-17T10:46:06;101957.03;;;13.54;68.72
62374;BME280;48409;49.030;1.820;2023-02-17T10:48:39;101955.19;;;13.56;68.94
62374;BME280;48409;49.030;1.820;2023-02-17T10:51:10;101958.63;;;13.58;68.77
62374;BME280;48409;49.030;1.820;2023-02-17T10:53:37;101955.06;;;13.60;68.75
62374;BME280;48409;49.030;1.820;2023-02-17T10:58:33;101955.69;;;13.66;68.77
62374;BME280;48409;49.030;1.820;2023-02-17T11:01:01;101956.50;;;13.68;68.77
62374;BME280;48409;49.030;1.820;2023-02-17T11:03:28;101955.50;;;13.71;68.77
62374;BME280;48409;49.030;1.820;2023-02-17T11:05:55;101963.34;;;13.74;68.82
62374;BME280;48409;49.030;1.820;2023-02-17T11:08:38;101957.91;;;13.77;68.91
62374;BME280;48409;49.030;1.820;2023-02-17T11:11:06;101959.50;;;13.81;69.04
62374;BME280;48409;49.030;1.820;2023-02-17T11:13:41;101970.00;;;13.84;68.89
62374;BME280;48409;49.030;1.820;2023-02-17T11:16:18;101957.56;;;13.87;68.96
62374;BME280;48409;49.030;1.820;2023-02-17T11:18:44;101963.53;;;13.92;68.99
62374;BME280;48409;49.030;1.820;2023-02-17T11:21:12;101955.44;;;13.95;68.91
62374;BME280;48409;49.030;1.820;2023-02-17T11:23:50;101958.81;;;14.00;68.97
62374;BME280;48409;49.030;1.820;2023-02-17T11:26:17;101955.94;;;14.05;69.06
62374;BME280;48409;49.030;1.820;2023-02-17T11:28:45;101950.59;;;14.06;69.16
62374;BME280;48409;49.030;1.820;2023-02-17T11:31:31;101952.97;;;14.13;69.08
62374;BME280;48409;49.030;1.820;2023-02-17T11:33:56;101950.16;;;14.17;69.09
62374;BME280;48409;49.030;1.820;2023-02-17T11:36:22;101946.50;;;14.20;69.13
62374;BME280;48409;49.030;1.820;2023-02-17T11:38:48;101943.69;;;14.25;69.19
62374;BME280;48409;49.030;1.820;2023-02-17T11:41:14;101947.00;;;14.30;69.28
62374;BME280;48409;49.030;1.820;2023-02-17T11:43:49;101939.66;;;14.36;69.17
62374;BME280;48409;49.030;1.820;2023-02-17T11:56:36;101916.47;;;14.62;69.42
62374;BME280;48409;49.030;1.820;2023-02-17T11:59:16;101911.81;;;14.68;69.33
62374;BME280;48409;49.030;1.820;2023-02-17T12:06:40;101907.59;;;14.84;69.36
62374;BME280;48409;49.030;1.820;2023-02-17T12:19:51;101904.75;;;15.08;69.45
62374;BME280;48409;49.030;1.820;2023-02-17T12:25:08;101894.56;;;15.18;69.39
62374;BME280;48409;49.030;1.820;2023-02-17T12:35:47;101895.47;;;15.36;69.49
62374;BME280;48409;49.030;1.820;2023-02-17T12:38:17;101901.41;;;15.42;69.42
62374;BME280;48409;49.030;1.820;2023-02-17T12:40:46;101899.44;;;15.47;69.40
62374;BME280;48409;49.030;1.820;2023-02-17T12:45:41;101893.81;;;15.53;69.34
62374;BME280;48409;49.030;1.820;2023-02-17T12:50:47;101880.16;;;15.61;69.39
62374;BME280;48409;49.030;1.820;2023-02-17T12:53:16;101890.56;;;15.65;69.40
62374;BME280;48409;49.030;1.820;2023-02-17T12:55:47;101893.88;;;15.71;69.35
62374;BME280;48409;49.030;1.820;2023-02-17T12:58:15;101899.03;;;15.74;69.35
62374;BME280;48409;49.030;1.820;2023-02-17T13:00:46;101889.97;;;15.78;69.31
62374;BME280;48409;49.030;1.820;2023-02-17T13:03:13;101899.59;;;15.81;69.32
62374;BME280;48409;49.030;1.820;2023-02-17T13:05:45;101901.25;;;15.83;69.30
62374;BME280;48409;49.030;1.820;2023-02-17T13:08:19;101901.94;;;15.87;69.22
62374;BME280;48409;49.030;1.820;2023-02-17T13:10:57;101891.16;;;15.90;69.31
62374;BME280;48409;49.030;1.820;2023-02-17T13:13:30;101898.09;;;15.94;69.15
62374;BME280;48409;49.030;1.820;2023-02-17T13:16:09;101907.69;;;15.97;69.27
62374;BME280;48409;49.030;1.820;2023-02-17T13:18:38;101898.78;;;15.98;69.26
62374;BME280;48409;49.030;1.820;2023-02-17T13:23:43;101889.56;;;16.05;69.35
62374;BME280;48409;49.030;1.820;2023-02-17T13:28:42;101892.94;;;16.09;69.13
62374;BME280;48409;49.030;1.820;2023-02-17T13:31:09;101887.53;;;16.10;69.12
62374;BME280;48409;49.030;1.820;2023-02-17T13:33:39;101881.28;;;16.11;69.11
62374;BME280;48409;49.030;1.820;2023-02-17T13:36:19;101878.63;;;16.11;69.00
62374;BME280;48409;49.030;1.820;2023-02-17T13:38:58;101869.69;;;16.12;69.04
62374;BME280;48409;49.030;1.820;2023-02-17T13:41:25;101890.06;;;16.13;69.10
62374;BME280;48409;49.030;1.820;2023-02-17T13:43:51;101894.41;;;16.14;69.00
62374;BME280;48409;49.030;1.820;2023-02-17T13:46:20;101891.69;;;16.16;68.94
62374;BME280;48409;49.030;1.820;2023-02-17T13:48:57;101896.13;;;16.15;68.93
62374;BME280;48409;49.030;1.820;2023-02-17T13:51:24;101891.69;;;16.16;68.86
62374;BME280;48409;49.030;1.820;2023-02-17T13:53:49;101894.28;;;16.17;68.80
62374;BME280;48409;49.030;1.820;2023-02-17T13:56:28;101895.13;;;16.18;68.90
62374;BME280;48409;49.030;1.820;2023-02-17T13:59:05;101898.66;;;16.18;68.83
62374;BME280;48409;49.030;1.820;2023-02-17T14:01:30;101899.47;;;16.19;68.76
62374;BME280;48409;49.030;1.820;2023-02-17T14:03:56;101896.75;;;16.21;68.78
62374;BME280;48409;49.030;1.820;2023-02-17T14:06:28;101895.91;;;16.20;68.74
62374;BME280;48409;49.030;1.820;2023-02-17T14:08:54;101891.44;;;16.21;68.71
62374;BME280;48409;49.030;1.820;2023-02-17T14:11:21;101896.75;;;16.21;68.61
62374;BME280;48409;49.030;1.820;2023-02-17T14:13:49;101898.50;;;16.22;68.57
62374;BME280;48409;49.030;1.820;2023-02-17T14:19:10;101887.88;;;16.22;68.46